createdAt,value
2018-11-22T00:01:17.871Z,12.50
2018-11-22T00:03:47.023Z,13.08
2018-11-22T00:06:15.116Z,11.43
2018-11-22T00:08:44.366Z,10.55
2018-11-22T00:11:12.483Z,10.85
2018-11-22T00:13:40.553Z,13.72
2018-11-22T00:16:08.640Z,12.23
2018-11-22T00:18:36.687Z,12.03
2018-11-22T00:21:04.963Z,11.80
2018-11-22T00:23:33.122Z,12.20
2018-11-22T00:26:20.735Z,9.70
2018-11-22T00:28:48.816Z,11.25
2018-11-22T00:31:16.889Z,13.40
2018-11-22T00:34:04.712Z,11.80
2018-11-22T00:36:32.817Z,12.20
2018-11-22T00:39:00.906Z,11.28
2018-11-22T00:41:29.415Z,12.93
2018-11-22T00:43:57.489Z,11.97
2018-11-22T00:46:25.549Z,12.60
2018-11-22T00:48:53.590Z,11.25
2018-11-22T00:51:21.708Z,11.55
2018-11-22T00:53:49.782Z,10.90
2018-11-22T00:56:17.892Z,11.65
2018-11-22T00:58:46.022Z,13.70
2018-11-22T01:01:14.079Z,13.15
2018-11-22T01:03:42.151Z,10.25
2018-11-22T01:06:10.224Z,14.43
2018-11-22T01:08:38.690Z,12.25
2018-11-22T01:11:06.780Z,11.85
2018-11-22T01:13:54.617Z,11.57
2018-11-22T01:16:22.703Z,11.50
2018-11-22T01:18:50.812Z,11.43
2018-11-22T01:21:18.905Z,12.58
2018-11-22T01:24:06.573Z,10.68
2018-11-22T01:26:54.141Z,12.15
2018-11-22T01:29:22.589Z,11.30
2018-11-22T01:31:50.689Z,12.40
2018-11-22T01:34:18.790Z,11.73
2018-11-22T01:36:46.920Z,13.10
2018-11-22T01:39:15.000Z,11.30
2018-11-22T01:41:43.455Z,10.72
2018-11-22T01:44:11.561Z,11.57
2018-11-22T01:46:39.664Z,11.95
2018-11-22T01:49:27.301Z,11.75
2018-11-22T01:51:55.395Z,11.33
2018-11-22T01:54:23.530Z,11.10
2018-11-22T01:56:51.633Z,11.97
2018-11-22T01:59:19.710Z,10.40
2018-11-22T02:02:07.316Z,10.68
2018-11-22T02:04:54.927Z,11.30
2018-11-22T02:07:23.044Z,10.13
2018-11-22T02:09:51.128Z,9.43
2018-11-22T02:12:19.461Z,11.83
2018-11-22T02:14:47.951Z,10.88
2018-11-22T02:17:16.507Z,11.03
2018-11-22T02:19:44.982Z,13.32
2018-11-22T02:22:13.603Z,9.63
2018-11-22T02:24:41.675Z,11.38
2018-11-22T02:27:09.746Z,12.40
2018-11-22T02:29:37.865Z,12.73
2018-11-22T02:32:25.433Z,10.38
2018-11-22T02:34:53.540Z,11.00
2018-11-22T02:37:22.622Z,11.05
2018-11-22T02:39:50.705Z,11.25
2018-11-22T02:42:38.358Z,11.45
2018-11-22T02:45:08.688Z,10.48
2018-11-22T02:47:56.262Z,10.53
2018-11-22T02:50:25.002Z,10.78
2018-11-22T02:52:53.893Z,11.18
2018-11-22T02:55:21.970Z,9.63
2018-11-22T02:57:50.057Z,10.23
2018-11-22T03:00:39.113Z,10.35
2018-11-22T03:03:26.691Z,10.82
2018-11-22T03:05:54.775Z,11.70
2018-11-22T03:08:22.862Z,10.40
2018-11-22T03:11:10.453Z,10.85
2018-11-22T03:13:38.566Z,11.10
2018-11-22T03:16:06.682Z,12.63
2018-11-22T03:18:34.836Z,13.13
2018-11-22T03:21:22.648Z,10.82
2018-11-22T03:24:10.228Z,11.38
2018-11-22T03:26:38.294Z,11.28
2018-11-22T03:29:06.402Z,10.98
2018-11-22T03:31:34.804Z,12.15
2018-11-22T03:34:02.880Z,10.55
2018-11-22T03:36:30.938Z,10.30
2018-11-22T03:39:18.563Z,9.95
2018-11-22T03:41:46.648Z,10.55
2018-11-22T03:44:34.257Z,10.95
2018-11-22T03:47:21.904Z,10.30
2018-11-22T03:49:50.561Z,10.05
2018-11-22T03:52:18.025Z,11.05
2018-11-22T03:54:46.137Z,10.05
2018-11-22T03:57:14.188Z,12.10
2018-11-22T04:00:01.795Z,10.58
2018-11-22T04:02:29.898Z,11.85
2018-11-22T04:04:57.994Z,8.93
2018-11-22T04:07:26.073Z,13.45
2018-11-22T04:09:54.151Z,10.38
2018-11-22T04:12:22.296Z,10.90
2018-11-22T04:14:50.389Z,10.30
2018-11-22T04:17:18.457Z,11.70
2018-11-22T04:19:46.546Z,11.35
2018-11-22T04:22:14.984Z,10.15
2018-11-22T04:24:43.066Z,11.68
2018-11-22T04:27:11.171Z,10.78
2018-11-22T04:29:58.758Z,10.60
2018-11-22T04:32:27.199Z,9.90
2018-11-22T04:34:55.361Z,10.88
2018-11-22T04:37:23.476Z,10.60
2018-11-22T04:39:51.555Z,12.58
2018-11-22T04:42:19.722Z,11.00
2018-11-22T04:44:47.785Z,11.00
2018-11-22T04:47:15.889Z,10.60
2018-11-22T04:49:43.973Z,12.18
2018-11-22T04:52:12.031Z,10.13
2018-11-22T04:54:40.141Z,9.80
2018-11-22T04:57:08.210Z,10.95
2018-11-22T04:59:36.352Z,11.20
2018-11-22T05:02:04.864Z,10.85
2018-11-22T05:04:33.312Z,10.45
2018-11-22T05:07:21.003Z,10.03
2018-11-22T05:09:49.132Z,10.78
2018-11-22T05:12:17.571Z,10.15
2018-11-22T05:14:45.657Z,12.33
2018-11-22T05:17:33.257Z,10.70
2018-11-22T05:20:01.353Z,22.93
2018-11-22T05:22:30.502Z,11.12
2018-11-22T05:24:58.620Z,13.45
2018-11-22T05:27:26.689Z,13.15
2018-11-22T05:29:54.820Z,11.20
2018-11-22T05:32:24.334Z,12.82
2018-11-22T05:34:52.795Z,11.20
2018-11-22T05:37:20.862Z,11.35
2018-11-22T05:40:09.538Z,12.98
2018-11-22T05:42:37.611Z,11.03
2018-11-22T05:45:07.865Z,10.38
2018-11-22T05:47:35.938Z,12.85
2018-11-22T05:50:27.745Z,12.18
2018-11-22T05:52:57.429Z,11.18
2018-11-22T05:55:25.491Z,14.53
2018-11-22T05:58:13.077Z,15.80
2018-11-22T06:00:41.169Z,16.80
2018-11-22T06:03:09.284Z,12.43
2018-11-22T06:05:37.384Z,10.30
2018-11-22T06:08:05.872Z,10.88
2018-11-22T06:10:35.530Z,11.95
2018-11-22T06:13:04.693Z,11.90
2018-11-22T06:15:32.831Z,11.20
2018-11-22T06:18:01.700Z,11.70
2018-11-22T06:20:30.815Z,9.90
2018-11-22T06:22:58.882Z,12.33
2018-11-22T06:25:27.043Z,12.15
2018-11-22T06:27:55.833Z,10.75
2018-11-22T06:30:25.333Z,11.93
2018-11-22T06:32:54.838Z,10.13
2018-11-22T06:35:23.837Z,11.63
2018-11-22T06:37:52.028Z,9.70
2018-11-22T06:40:39.578Z,10.13
2018-11-22T06:43:27.213Z,10.18
2018-11-22T06:45:55.308Z,11.20
2018-11-22T06:48:23.575Z,10.72
2018-11-22T06:51:11.268Z,11.25
2018-11-22T06:53:39.412Z,10.95
2018-11-22T06:56:07.517Z,11.00
2018-11-22T06:58:35.580Z,10.63
2018-11-22T07:01:03.688Z,11.65
2018-11-22T07:03:31.764Z,11.38
2018-11-22T07:05:59.914Z,9.58
2018-11-22T07:08:28.432Z,10.88
2018-11-22T07:10:56.584Z,10.40
2018-11-22T07:13:24.598Z,10.38
2018-11-22T07:15:52.673Z,12.05
2018-11-22T07:18:20.757Z,9.38
2018-11-22T07:21:08.323Z,8.88
2018-11-22T07:23:55.961Z,11.40
2018-11-22T07:26:24.079Z,11.12
2018-11-22T07:28:52.201Z,9.68
2018-11-22T07:31:20.266Z,9.58
2018-11-22T07:33:48.402Z,9.98
2018-11-22T07:36:16.561Z,10.28
2018-11-22T07:38:44.644Z,10.50
2018-11-22T07:41:13.175Z,10.75
2018-11-22T07:43:41.682Z,9.50
2018-11-22T07:46:09.778Z,10.43
2018-11-22T07:48:37.851Z,11.48
2018-11-22T07:51:05.961Z,10.88
2018-11-22T07:53:34.083Z,9.18
2018-11-22T07:56:02.157Z,9.03
2018-11-22T07:58:30.261Z,9.05
2018-11-22T08:00:58.332Z,11.28
2018-11-22T08:03:26.887Z,10.32
2018-11-22T08:05:54.964Z,9.28
2018-11-22T08:08:23.060Z,8.55
2018-11-22T08:10:51.194Z,8.50
2018-11-22T08:13:19.239Z,9.83
2018-11-22T08:15:47.448Z,10.90
2018-11-22T08:18:15.449Z,8.90
2018-11-22T08:20:43.522Z,10.00
2018-11-22T08:23:12.117Z,11.00
2018-11-22T08:25:40.209Z,11.80
2018-11-22T08:28:08.663Z,10.05
2018-11-22T08:30:36.751Z,9.83
2018-11-22T08:33:05.041Z,10.80
2018-11-22T08:35:33.166Z,11.48
2018-11-22T08:38:01.244Z,11.15
2018-11-22T08:40:30.358Z,11.43
2018-11-22T08:42:59.059Z,11.43
2018-11-22T08:45:27.831Z,12.45
2018-11-22T08:47:55.990Z,12.10
2018-11-22T08:50:25.775Z,11.57
2018-11-22T08:52:55.267Z,12.60
2018-11-22T08:55:23.370Z,11.08
2018-11-22T08:57:51.932Z,10.72
2018-11-22T09:00:21.376Z,12.33
2018-11-22T09:02:49.854Z,11.95
2018-11-22T09:05:19.589Z,11.43
2018-11-22T09:07:48.127Z,11.15
2018-11-22T09:10:18.089Z,12.35
2018-11-22T09:12:46.664Z,10.08
2018-11-22T09:15:33.827Z,13.40
2018-11-22T09:18:01.946Z,10.88
2018-11-22T09:20:31.595Z,10.88
2018-11-22T09:22:59.660Z,13.93
2018-11-22T09:25:27.847Z,26.15
2018-11-22T09:27:56.383Z,26.45
2018-11-22T09:30:26.298Z,9.73
2018-11-22T09:32:54.879Z,11.18
2018-11-22T09:35:24.430Z,12.03
2018-11-22T09:37:52.757Z,9.70
2018-11-22T09:40:23.021Z,12.37
2018-11-22T09:42:51.080Z,10.80
2018-11-22T09:45:22.290Z,10.78
2018-11-22T09:47:50.717Z,10.82
2018-11-22T09:50:19.473Z,10.95
2018-11-22T09:52:48.692Z,11.45
2018-11-22T09:55:18.184Z,12.00
2018-11-22T09:57:46.616Z,11.40
2018-11-22T10:00:17.393Z,11.55
2018-11-22T10:02:45.494Z,10.58
2018-11-22T10:05:32.677Z,12.23
2018-11-22T10:08:00.723Z,12.10
2018-11-22T10:10:30.582Z,11.28
2018-11-22T10:12:58.662Z,11.45
2018-11-22T10:15:29.084Z,12.13
2018-11-22T10:17:57.549Z,11.15
2018-11-22T10:20:26.756Z,13.03
2018-11-22T10:22:55.783Z,9.93
2018-11-22T10:25:24.128Z,11.08
2018-11-22T10:27:53.646Z,13.45
2018-11-22T10:30:21.864Z,11.50
2018-11-22T10:32:53.913Z,12.25
2018-11-22T10:35:23.679Z,13.32
2018-11-22T10:37:51.827Z,11.20
2018-11-22T10:40:21.053Z,12.45
2018-11-22T10:42:50.563Z,10.93
2018-11-22T10:45:20.091Z,11.48
2018-11-22T10:47:49.798Z,23.70
2018-11-22T10:50:19.237Z,14.45
2018-11-22T10:52:47.315Z,13.08
2018-11-22T10:55:17.178Z,12.80
2018-11-22T10:57:46.166Z,11.70
2018-11-22T11:00:52.822Z,10.68
2018-11-22T11:03:40.029Z,13.35
2018-11-22T11:06:27.273Z,12.50
2018-11-22T11:08:55.313Z,11.35
2018-11-22T11:11:23.784Z,13.15
2018-11-22T11:13:52.216Z,11.03
2018-11-22T11:16:20.570Z,13.18
2018-11-22T11:18:48.650Z,14.30
2018-11-22T11:21:17.098Z,11.57
2018-11-22T11:23:45.171Z,13.10
2018-11-22T11:26:13.260Z,11.67
2018-11-22T11:29:01.150Z,12.07
2018-11-22T11:31:29.661Z,14.60
2018-11-22T11:33:57.712Z,14.13
2018-11-22T11:36:25.776Z,13.37
2018-11-22T11:38:53.862Z,12.67
2018-11-22T11:41:21.913Z,14.20
2018-11-22T11:43:49.949Z,11.97
2018-11-22T11:46:18.021Z,12.40
2018-11-22T11:48:46.084Z,13.67
2018-11-22T11:51:15.234Z,13.50
2018-11-22T11:53:43.328Z,13.43
2018-11-22T11:56:11.378Z,14.67
2018-11-22T11:58:39.466Z,14.47
2018-11-22T12:01:07.571Z,15.20
2018-11-22T12:03:35.645Z,13.17
2018-11-22T12:06:03.684Z,14.07
2018-11-22T12:08:31.763Z,12.60
2018-11-22T12:10:59.835Z,15.17
2018-11-22T12:13:27.909Z,13.20
2018-11-22T12:15:56.013Z,13.05
2018-11-22T12:18:24.517Z,14.58
2018-11-22T12:20:52.571Z,14.40
2018-11-22T12:23:20.652Z,12.40
2018-11-22T12:25:48.697Z,15.70
2018-11-22T12:28:16.777Z,13.25
2018-11-22T12:30:44.842Z,12.88
2018-11-22T12:33:21.522Z,13.40
2018-11-22T12:36:08.751Z,14.60
2018-11-22T12:38:36.857Z,13.78
2018-11-22T12:41:04.950Z,14.23
2018-11-22T12:43:33.017Z,13.38
2018-11-22T12:46:01.103Z,13.50
2018-11-22T12:48:29.156Z,14.25
2018-11-22T12:50:57.271Z,14.63
2018-11-22T12:53:25.332Z,12.73
2018-11-22T12:55:53.372Z,11.57
2018-11-22T12:58:21.440Z,14.55
2018-11-22T13:00:49.981Z,12.93
2018-11-22T13:03:18.405Z,13.13
2018-11-22T13:05:46.460Z,14.10
2018-11-22T13:08:14.881Z,13.00
2018-11-22T13:10:43.020Z,13.83
2018-11-22T13:13:11.036Z,15.93
2018-11-22T13:15:39.481Z,14.25
2018-11-22T13:18:07.561Z,14.30
2018-11-22T13:20:35.632Z,15.00
2018-11-22T13:23:04.138Z,15.23
2018-11-22T13:25:32.670Z,13.83
2018-11-22T13:28:01.178Z,14.70
2018-11-22T13:30:29.641Z,14.68
2018-11-22T13:32:58.765Z,15.30
2018-11-22T13:35:26.871Z,16.90
2018-11-22T13:37:55.803Z,15.78
2018-11-22T13:40:24.185Z,16.30
2018-11-22T13:42:52.795Z,14.23
2018-11-22T13:45:23.093Z,15.08
2018-11-22T13:47:52.517Z,15.75
2018-11-22T13:50:42.165Z,15.68
2018-11-22T13:53:08.760Z,15.85
2018-11-22T13:55:36.831Z,17.45
2018-11-22T13:58:05.281Z,15.10
2018-11-22T14:00:34.379Z,14.68
2018-11-22T14:03:04.031Z,16.42
2018-11-22T14:05:32.085Z,14.80
2018-11-22T14:08:00.932Z,15.60
2018-11-22T14:10:29.982Z,17.50
2018-11-22T14:12:59.172Z,16.82
2018-11-22T14:15:29.261Z,14.55
2018-11-22T14:17:59.053Z,15.00
2018-11-22T14:20:46.271Z,15.95
2018-11-22T14:23:14.371Z,16.70
2018-11-22T14:25:45.036Z,14.13
2018-11-22T14:28:10.545Z,15.20
2018-11-22T14:30:38.637Z,14.95
2018-11-22T14:33:07.111Z,14.60
2018-11-22T14:35:35.254Z,14.90
2018-11-22T14:38:03.732Z,14.38
2018-11-22T14:40:32.606Z,14.23
2018-11-22T14:43:01.090Z,16.42
2018-11-22T14:45:30.084Z,17.15
2018-11-22T14:47:59.786Z,13.78
2018-11-22T14:51:06.748Z,13.70
2018-11-22T14:53:34.829Z,15.80
2018-11-22T14:56:02.889Z,14.30
2018-11-22T14:58:31.023Z,16.00
2018-11-22T15:00:59.062Z,16.67
2018-11-22T15:03:27.558Z,14.83
2018-11-22T15:05:55.626Z,15.80
2018-11-22T15:08:23.684Z,14.83
2018-11-22T15:10:51.751Z,20.62
2018-11-22T15:13:19.913Z,17.27
2018-11-22T15:15:48.403Z,15.20
2018-11-22T15:18:16.887Z,14.65
2018-11-22T15:20:44.968Z,14.65
2018-11-22T15:23:13.040Z,13.58
2018-11-22T15:25:41.128Z,16.07
2018-11-22T15:28:09.180Z,14.03
2018-11-22T15:30:37.228Z,16.40
2018-11-22T15:33:05.797Z,16.25
2018-11-22T15:35:33.845Z,15.35
2018-11-22T15:38:01.926Z,15.63
2018-11-22T15:40:30.012Z,16.25
2018-11-22T15:42:59.761Z,17.65
2018-11-22T15:45:34.797Z,16.23
2018-11-22T15:47:56.816Z,16.82
2018-11-22T15:50:28.599Z,16.48
2018-11-22T15:52:56.650Z,15.98
2018-11-22T15:55:25.557Z,17.50
2018-11-22T15:57:55.558Z,16.95
2018-11-22T16:00:33.809Z,16.48
2018-11-22T16:03:03.372Z,15.95
2018-11-22T16:05:32.286Z,16.17
2018-11-22T16:08:00.381Z,15.53
2018-11-22T16:10:29.956Z,16.45
2018-11-22T16:12:59.911Z,24.32
2018-11-22T16:15:33.608Z,16.20
2018-11-22T16:18:01.752Z,17.30
2018-11-22T16:20:29.889Z,18.60
2018-11-22T16:22:58.450Z,17.35
2018-11-22T16:25:26.555Z,15.60
2018-11-22T16:27:55.048Z,20.90
2018-11-22T16:30:24.581Z,18.55
2018-11-22T16:32:53.361Z,16.05
2018-11-22T16:35:22.292Z,17.98
2018-11-22T16:37:50.366Z,16.62
2018-11-22T16:40:20.065Z,18.00
2018-11-22T16:42:49.151Z,17.30
2018-11-22T16:45:36.455Z,17.25
2018-11-22T16:48:06.301Z,18.23
2018-11-22T16:50:35.780Z,17.60
2018-11-22T16:53:04.212Z,18.90
2018-11-22T16:55:32.821Z,20.95
2018-11-22T16:58:01.959Z,18.87
2018-11-22T17:00:31.453Z,18.82
2018-11-22T17:03:03.712Z,18.70
2018-11-22T17:05:32.117Z,17.37
2018-11-22T17:08:01.384Z,17.27
2018-11-22T17:10:30.609Z,16.30
2018-11-22T17:13:00.287Z,16.97
2018-11-22T17:15:30.013Z,16.05
2018-11-22T17:17:58.689Z,17.65
2018-11-22T17:20:27.781Z,17.07
2018-11-22T17:22:55.893Z,17.35
2018-11-22T17:25:44.578Z,19.05
2018-11-22T17:28:12.741Z,17.40
2018-11-22T17:30:42.725Z,16.60
2018-11-22T17:33:11.129Z,17.95
2018-11-22T17:35:40.235Z,15.60
2018-11-22T17:38:09.509Z,18.57
2018-11-22T17:40:42.064Z,16.23
2018-11-22T17:43:10.154Z,16.77
2018-11-22T17:45:42.621Z,17.05
2018-11-22T17:48:10.885Z,16.07
2018-11-22T17:50:40.530Z,17.50
2018-11-22T17:53:09.455Z,17.50
2018-11-22T17:55:37.626Z,18.52
2018-11-22T17:58:06.890Z,16.25
2018-11-22T18:00:36.462Z,16.48
2018-11-22T18:03:05.296Z,18.12
2018-11-22T18:05:33.801Z,17.45
2018-11-22T18:08:02.014Z,16.95
2018-11-22T18:10:31.749Z,16.90
2018-11-22T18:13:00.436Z,19.42
2018-11-22T18:15:30.242Z,17.10
2018-11-22T18:17:59.202Z,18.65
2018-11-22T18:20:28.857Z,19.62
2018-11-22T18:22:58.031Z,19.02
2018-11-22T18:25:28.181Z,17.95
2018-11-22T18:27:56.474Z,16.87
2018-11-22T18:30:26.053Z,16.80
2018-11-22T18:33:13.244Z,18.92
2018-11-22T18:35:41.379Z,16.55
2018-11-22T18:38:09.902Z,17.00
2018-11-22T18:40:39.512Z,16.80
2018-11-22T18:43:07.615Z,16.35
2018-11-22T18:45:37.602Z,15.93
2018-11-22T18:48:07.250Z,16.70
2018-11-22T18:50:36.000Z,18.17
2018-11-22T18:53:04.366Z,18.92
2018-11-22T18:55:32.487Z,20.40
2018-11-22T18:58:00.594Z,25.08
2018-11-22T19:00:30.040Z,19.30
2018-11-22T19:02:59.678Z,21.50
2018-11-22T19:05:27.896Z,18.00
2018-11-22T19:07:56.929Z,17.65
2018-11-22T19:10:26.424Z,18.75
2018-11-22T19:12:55.751Z,22.13
2018-11-22T19:15:25.386Z,21.30
2018-11-22T19:17:53.918Z,18.67
2018-11-22T19:20:24.653Z,19.42
2018-11-22T19:22:53.763Z,20.70
2018-11-22T19:25:23.471Z,21.77
2018-11-22T19:27:51.672Z,21.77
2018-11-22T19:30:21.344Z,20.48
2018-11-22T19:32:50.559Z,16.45
2018-11-22T19:35:20.549Z,18.52
2018-11-22T19:37:49.076Z,20.40
2018-11-22T19:40:36.845Z,18.70
2018-11-22T19:43:06.398Z,18.40
2018-11-22T19:45:36.117Z,20.20
2018-11-22T19:48:04.657Z,19.35
2018-11-22T19:50:32.909Z,16.30
2018-11-22T19:53:02.373Z,17.77
2018-11-22T19:55:31.742Z,19.95
2018-11-22T19:58:01.772Z,20.17
2018-11-22T20:00:30.283Z,16.60
2018-11-22T20:02:59.773Z,17.02
2018-11-22T20:05:47.346Z,17.73
2018-11-22T20:08:17.208Z,21.45
2018-11-22T20:10:46.110Z,18.95
2018-11-22T20:13:14.609Z,19.20
2018-11-22T20:15:42.750Z,15.93
2018-11-22T20:18:11.540Z,19.30
2018-11-22T20:20:40.063Z,18.30
2018-11-22T20:23:08.168Z,18.42
2018-11-22T20:25:36.257Z,17.02
2018-11-22T20:28:04.423Z,18.82
2018-11-22T20:30:51.615Z,16.87
2018-11-22T20:33:19.708Z,17.00
2018-11-22T20:35:47.880Z,17.40
2018-11-22T20:38:16.003Z,17.35
2018-11-22T20:40:44.116Z,19.55
2018-11-22T20:43:12.658Z,17.87
2018-11-22T20:45:41.349Z,17.35
2018-11-22T20:48:09.247Z,20.57
2018-11-22T20:50:37.889Z,17.65
2018-11-22T20:53:06.692Z,19.48
2018-11-22T20:55:54.221Z,17.70
2018-11-22T20:58:22.305Z,17.65
2018-11-22T21:00:50.748Z,16.65
2018-11-22T21:03:19.358Z,18.23
2018-11-22T21:05:47.479Z,17.65
2018-11-22T21:08:35.152Z,17.35
2018-11-22T21:11:03.260Z,15.65
2018-11-22T21:13:31.410Z,15.20
2018-11-22T21:15:59.517Z,15.70
2018-11-22T21:18:27.594Z,16.57
2018-11-22T21:20:55.691Z,16.90
2018-11-22T21:23:43.288Z,16.85
2018-11-22T21:26:14.527Z,15.23
2018-11-22T21:28:39.839Z,15.65
2018-11-22T21:31:07.981Z,14.85
2018-11-22T21:33:36.019Z,16.30
2018-11-22T21:36:04.091Z,16.40
2018-11-22T21:38:32.649Z,15.08
2018-11-22T21:41:08.076Z,15.93
2018-11-22T21:43:36.136Z,16.10
2018-11-22T21:46:04.282Z,16.30
2018-11-22T21:48:32.348Z,15.58
2018-11-22T21:51:00.395Z,16.50
2018-11-22T21:53:28.486Z,15.83
2018-11-22T21:55:56.536Z,15.08
2018-11-22T21:58:44.156Z,16.40
2018-11-22T22:01:12.248Z,16.90
2018-11-22T22:03:40.354Z,16.82
2018-11-22T22:06:08.481Z,13.32
2018-11-22T22:08:36.551Z,18.62
2018-11-22T22:11:04.622Z,15.65
2018-11-22T22:13:32.708Z,17.35
2018-11-22T22:16:20.286Z,16.35
2018-11-22T22:19:07.955Z,18.07
2018-11-22T22:21:35.999Z,15.83
2018-11-22T22:24:04.079Z,15.90
2018-11-22T22:26:32.162Z,15.45
2018-11-22T22:29:00.686Z,17.12
2018-11-22T22:31:28.751Z,17.85
2018-11-22T22:33:56.843Z,17.07
2018-11-22T22:36:24.918Z,16.00
2018-11-22T22:38:52.989Z,16.20
2018-11-22T22:41:21.425Z,16.35
2018-11-22T22:43:49.511Z,16.57
2018-11-22T22:46:17.605Z,17.42
2018-11-22T22:48:45.696Z,16.35
2018-11-22T22:51:14.243Z,16.90
2018-11-22T22:53:42.338Z,17.67
2018-11-22T22:56:10.411Z,18.20
2018-11-22T22:58:38.543Z,16.45
2018-11-22T23:01:06.612Z,18.70
2018-11-22T23:03:34.696Z,18.40
2018-11-22T23:06:02.767Z,17.20
2018-11-22T23:08:30.869Z,15.53
2018-11-22T23:10:58.929Z,14.63
2018-11-22T23:13:27.029Z,16.32
2018-11-22T23:15:55.104Z,16.20
2018-11-22T23:18:23.251Z,16.73
2018-11-22T23:20:51.367Z,14.87
2018-11-22T23:23:19.867Z,17.35
2018-11-22T23:25:48.026Z,16.52
2018-11-22T23:28:16.032Z,15.80
2018-11-22T23:30:44.481Z,16.00
2018-11-22T23:33:12.556Z,17.40
2018-11-22T23:35:40.656Z,15.18
2018-11-22T23:38:09.107Z,11.53
2018-11-22T23:40:37.563Z,16.50
2018-11-22T23:43:06.260Z,17.17
2018-11-22T23:45:34.315Z,16.77
2018-11-22T23:48:02.368Z,14.38
2018-11-22T23:50:31.678Z,16.50
2018-11-22T23:53:01.366Z,16.67
2018-11-22T23:55:29.380Z,16.85
2018-11-22T23:57:57.457Z,15.78
